sensor_id;sensor_type;location;lat;lon;timestamp;pressure;altitude;pressure_sealevel;temperature;humidity
50057;BME280;36875;49.468;11.200;2023-06-01T00:00:19;98168.75;;;21.49;37.38
50057;BME280;36875;49.468;11.200;2023-06-01T00:02:44;98172.28;;;21.49;37.23
50057;BME280;36875;49.468;11.200;2023-06-01T00:05:10;98172.59;;;21.48;37.40
50057;BME280;36875;49.468;11.200;2023-06-01T00:07:37;98173.75;;;21.47;37.37
50057;BME280;36875;49.468;11.200;2023-06-01T00:10:03;98174.84;;;21.46;37.31
50057;BME280;36875;49.468;11.200;2023-06-01T00:12:29;98172.09;;;21.46;37.41
50057;BME280;36875;49.468;11.200;2023-06-01T00:14:54;98165.31;;;21.43;37.39
50057;BME280;36875;49.468;11.200;2023-06-01T00:17:20;98161.25;;;21.41;37.16
50057;BME280;36875;49.468;11.200;2023-06-01T00:19:48;98163.09;;;21.45;37.09
50057;BME280;36875;49.468;11.200;2023-06-01T00:22:14;98164.19;;;21.44;37.43
50057;BME280;36875;49.468;11.200;2023-06-01T00:24:42;98157.41;;;21.42;37.22
50057;BME280;36875;49.468;11.200;2023-06-01T00:27:07;98163.69;;;21.42;37.35
50057;BME280;36875;49.468;11.200;2023-06-01T00:29:33;98153.53;;;21.43;37.35
50057;BME280;36875;49.468;11.200;2023-06-01T00:31:58;98164.47;;;21.43;37.02
50057;BME280;36875;49.468;11.200;2023-06-01T00:34:24;98161.25;;;21.41;37.42
50057;BME280;36875;49.468;11.200;2023-06-01T00:36:49;98158.53;;;21.41;37.50
50057;BME280;36875;49.468;11.200;2023-06-01T00:39:15;98157.72;;;21.40;37.17
50057;BME280;36875;49.468;11.200;2023-06-01T00:41:42;98160.47;;;21.40;37.46
50057;BME280;36875;49.468;11.200;2023-06-01T00:44:08;98160.47;;;21.40;37.45
50057;BME280;36875;49.468;11.200;2023-06-01T00:46:33;98154.81;;;21.36;37.61
50057;BME280;36875;49.468;11.200;2023-06-01T00:48:59;98164.31;;;21.39;37.59
50057;BME280;36875;49.468;11.200;2023-06-01T00:51:25;98164.31;;;21.39;37.34
50057;BME280;36875;49.468;11.200;2023-06-01T00:53:51;98151.56;;;21.34;37.07
50057;BME280;36875;49.468;11.200;2023-06-01T00:56:17;98160.75;;;21.38;37.27
50057;BME280;36875;49.468;11.200;2023-06-01T00:58:44;98156.75;;;21.36;37.22
50057;BME280;36875;49.468;11.200;2023-06-01T01:01:10;98158.34;;;21.37;37.37
50057;BME280;36875;49.468;11.200;2023-06-01T01:03:44;98150.44;;;21.35;37.27
50057;BME280;36875;49.468;11.200;2023-06-01T01:06:17;98151.56;;;21.34;37.37
50057;BME280;36875;49.468;11.200;2023-06-01T01:08:59;98143.34;;;21.34;37.46
50057;BME280;36875;49.468;11.200;2023-06-01T01:11:32;98142.56;;;21.34;37.31
50057;BME280;36875;49.468;11.200;2023-06-01T01:14:05;98149.16;;;21.33;37.65
50057;BME280;36875;49.468;11.200;2023-06-01T01:16:42;98149.94;;;21.33;37.52
50057;BME280;36875;49.468;11.200;2023-06-01T01:19:20;98155.41;;;21.33;37.30
50057;BME280;36875;49.468;11.200;2023-06-01T01:21:58;98157.19;;;21.29;37.26
50057;BME280;36875;49.468;11.200;2023-06-01T01:24:37;98154.13;;;21.31;37.61
50057;BME280;36875;49.468;11.200;2023-06-01T01:27:15;98157.47;;;21.28;37.65
50057;BME280;36875;49.468;11.200;2023-06-01T01:29:45;98158.28;;;21.28;37.09
50057;BME280;36875;49.468;11.200;2023-06-01T01:32:12;98155.53;;;21.28;37.09
50057;BME280;36875;49.468;11.200;2023-06-01T01:34:40;98156.69;;;21.27;37.29
50057;BME280;36875;49.468;11.200;2023-06-01T01:37:08;98150.41;;;21.27;37.38
50057;BME280;36875;49.468;11.200;2023-06-01T01:39:34;98151.22;;;21.27;37.23
50057;BME280;36875;49.468;11.200;2023-06-01T01:41:59;98152.81;;;21.28;37.51
50057;BME280;36875;49.468;11.200;2023-06-01T01:44:25;98151.22;;;21.27;37.29
50057;BME280;36875;49.468;11.200;2023-06-01T01:46:57;98146.84;;;21.26;37.31
50057;BME280;36875;49.468;11.200;2023-06-01T01:49:27;98147.97;;;21.25;37.30
50057;BME280;36875;49.468;11.200;2023-06-01T01:51:57;98150.72;;;21.25;37.20
50057;BME280;36875;49.468;11.200;2023-06-01T01:54:29;98139.78;;;21.25;37.24
50057;BME280;36875;49.468;11.200;2023-06-01T01:56:57;98140.38;;;21.22;37.39
50057;BME280;36875;49.468;11.200;2023-06-01T01:59:23;98139.28;;;21.23;37.25
50057;BME280;36875;49.468;11.200;2023-06-01T02:01:50;98141.19;;;21.23;37.17
50057;BME280;36875;49.468;11.200;2023-06-01T02:04:16;98139.59;;;21.22;37.45
50057;BME280;36875;49.468;11.200;2023-06-01T02:06:42;98135.22;;;21.21;37.32
50057;BME280;36875;49.468;11.200;2023-06-01T02:09:08;98131.38;;;21.22;37.49
50057;BME280;36875;49.468;11.200;2023-06-01T02:11:33;98139.91;;;21.20;37.41
50057;BME280;36875;49.468;11.200;2023-06-01T02:13:59;98133.31;;;21.21;37.13
50057;BME280;36875;49.468;11.200;2023-06-01T02:16:25;98140.69;;;21.21;37.31
50057;BME280;36875;49.468;11.200;2023-06-01T02:18:51;98144.56;;;21.20;37.14
50057;BME280;36875;49.468;11.200;2023-06-01T02:21:18;98135.03;;;21.17;37.06
50057;BME280;36875;49.468;11.200;2023-06-01T02:23:44;98129.56;;;21.17;37.41
50057;BME280;36875;49.468;11.200;2023-06-01T02:26:10;98128.09;;;21.11;37.20
50057;BME280;36875;49.468;11.200;2023-06-01T02:28:36;98127.97;;;21.16;37.30
50057;BME280;36875;49.468;11.200;2023-06-01T02:31:02;98117.63;;;21.13;37.20
50057;BME280;36875;49.468;11.200;2023-06-01T02:33:27;98127.00;;;21.12;37.35
50057;BME280;36875;49.468;11.200;2023-06-01T02:35:53;98125.53;;;21.14;37.22
50057;BME280;36875;49.468;11.200;2023-06-01T02:38:20;98130.22;;;21.14;37.11
50057;BME280;36875;49.468;11.200;2023-06-01T02:40:45;98122.63;;;21.11;37.09
50057;BME280;36875;49.468;11.200;2023-06-01T02:43:11;98122.94;;;21.09;37.13
50057;BME280;36875;49.468;11.200;2023-06-01T02:45:36;98119.88;;;21.11;37.04
50057;BME280;36875;49.468;11.200;2023-06-01T02:48:02;98122.94;;;21.09;37.23
50057;BME280;36875;49.468;11.200;2023-06-01T02:50:28;98123.41;;;21.11;36.92
50057;BME280;36875;49.468;11.200;2023-06-01T02:52:53;98123.72;;;21.10;37.32
50057;BME280;36875;49.468;11.200;2023-06-01T02:55:20;98121.34;;;21.08;37.35
50057;BME280;36875;49.468;11.200;2023-06-01T02:57:45;98120.81;;;21.06;37.14
50057;BME280;36875;49.468;11.200;2023-06-01T03:00:11;98123.53;;;21.06;37.11
50057;BME280;36875;49.468;11.200;2023-06-01T03:02:41;98115.69;;;21.05;37.14
50057;BME280;36875;49.468;11.200;2023-06-01T03:05:08;98120.00;;;21.06;37.06
50057;BME280;36875;49.468;11.200;2023-06-01T03:07:34;98112.94;;;21.05;37.20
50057;BME280;36875;49.468;11.200;2023-06-01T03:10:00;98103.41;;;21.02;37.00
50057;BME280;36875;49.468;11.200;2023-06-01T03:12:28;98113.44;;;21.07;37.15
50057;BME280;36875;49.468;11.200;2023-06-01T03:14:54;98119.22;;;21.05;37.31
50057;BME280;36875;49.468;11.200;2023-06-01T03:17:20;98114.03;;;21.04;37.08
50057;BME280;36875;49.468;11.200;2023-06-01T03:19:45;98111.31;;;21.04;37.01
50057;BME280;36875;49.468;11.200;2023-06-01T03:22:11;98114.03;;;21.04;37.05
50057;BME280;36875;49.468;11.200;2023-06-01T03:24:36;98114.34;;;21.02;37.30
50057;BME280;36875;49.468;11.200;2023-06-01T03:27:02;98117.59;;;21.04;36.96
50057;BME280;36875;49.468;11.200;2023-06-01T03:29:29;98108.88;;;21.02;37.12
50057;BME280;36875;49.468;11.200;2023-06-01T03:31:55;98112.75;;;21.01;37.03
50057;BME280;36875;49.468;11.200;2023-06-01T03:34:20;98119.03;;;21.02;37.31
50057;BME280;36875;49.468;11.200;2023-06-01T03:36:46;98109.00;;;20.97;36.92
50057;BME280;36875;49.468;11.200;2023-06-01T03:39:13;98113.38;;;20.98;36.96
50057;BME280;36875;49.468;11.200;2023-06-01T03:41:39;98117.22;;;20.97;37.35
50057;BME280;36875;49.468;11.200;2023-06-01T03:44:04;98107.59;;;20.99;37.15
50057;BME280;36875;49.468;11.200;2023-06-01T03:46:31;98111.44;;;20.98;36.95
50057;BME280;36875;49.468;11.200;2023-06-01T03:48:57;98108.41;;;21.00;37.04
50057;BME280;36875;49.468;11.200;2023-06-01T03:51:23;98115.00;;;20.99;36.85
50057;BME280;36875;49.468;11.200;2023-06-01T03:53:49;98101.63;;;20.97;36.91
50057;BME280;36875;49.468;11.200;2023-06-01T03:56:14;98113.69;;;20.96;37.15
50057;BME280;36875;49.468;11.200;2023-06-01T03:58:40;98108.50;;;20.95;37.22
50057;BME280;36875;49.468;11.200;2023-06-01T04:01:06;98110.44;;;20.94;37.07
50057;BME280;36875;49.468;11.200;2023-06-01T04:03:33;98110.16;;;20.96;37.05
50057;BME280;36875;49.468;11.200;2023-06-01T04:05:59;98110.44;;;20.94;36.91
50057;BME280;36875;49.468;11.200;2023-06-01T04:08:25;98104.78;;;20.91;36.74
50057;BME280;36875;49.468;11.200;2023-06-01T04:10:51;98112.69;;;20.92;36.83
50057;BME280;36875;49.468;11.200;2023-06-01T04:13:16;98114.13;;;20.90;37.07
50057;BME280;36875;49.468;11.200;2023-06-01T04:15:42;98107.22;;;20.92;37.08
50057;BME280;36875;49.468;11.200;2023-06-01T04:18:07;98108.81;;;20.93;36.61
50057;BME280;36875;49.468;11.200;2023-06-01T04:20:34;98111.25;;;20.95;36.58
50057;BME280;36875;49.468;11.200;2023-06-01T04:23:00;98115.44;;;20.92;36.53
50057;BME280;36875;49.468;11.200;2023-06-01T04:25:25;98121.22;;;20.91;36.88
50057;BME280;36875;49.468;11.200;2023-06-01T04:27:51;98115.75;;;20.91;36.70
50057;BME280;36875;49.468;11.200;2023-06-01T04:30:16;98120.72;;;20.89;36.52
50057;BME280;36875;49.468;11.200;2023-06-01T04:32:42;98122.19;;;20.95;36.63
50057;BME280;36875;49.468;11.200;2023-06-01T04:35:09;98121.41;;;20.94;36.45
50057;BME280;36875;49.468;11.200;2023-06-01T04:37:38;98127.16;;;20.93;36.47
50057;BME280;36875;49.468;11.200;2023-06-01T04:40:07;98134.41;;;20.89;36.64
50057;BME280;36875;49.468;11.200;2023-06-01T04:42:34;98134.59;;;20.92;36.64
50057;BME280;36875;49.468;11.200;2023-06-01T04:44:59;98136.03;;;20.90;36.33
50057;BME280;36875;49.468;11.200;2023-06-01T04:47:25;98128.94;;;20.89;36.71
50057;BME280;36875;49.468;11.200;2023-06-01T04:49:50;98134.88;;;20.91;36.39
50057;BME280;36875;49.468;11.200;2023-06-01T04:52:16;98128.94;;;20.89;36.45
50057;BME280;36875;49.468;11.200;2023-06-01T04:54:43;98124.13;;;20.94;36.45
50057;BME280;36875;49.468;11.200;2023-06-01T04:57:09;98128.22;;;21.06;36.89
50057;BME280;36875;49.468;11.200;2023-06-01T04:59:34;98122.44;;;21.07;36.47
50057;BME280;36875;49.468;11.200;2023-06-01T05:02:00;98128.09;;;21.11;36.40
50057;BME280;36875;49.468;11.200;2023-06-01T05:04:26;98128.72;;;21.08;36.52
50057;BME280;36875;49.468;11.200;2023-06-01T05:06:51;98126.81;;;21.08;36.41
50057;BME280;36875;49.468;11.200;2023-06-01T05:09:17;98124.81;;;21.00;36.46
50057;BME280;36875;49.468;11.200;2023-06-01T05:11:44;98123.06;;;21.04;36.69
50057;BME280;36875;49.468;11.200;2023-06-01T05:14:10;98119.69;;;21.07;36.55
50057;BME280;36875;49.468;11.200;2023-06-01T05:16:35;98118.06;;;21.06;36.70
50057;BME280;36875;49.468;11.200;2023-06-01T05:19:01;98121.50;;;21.12;36.68
50057;BME280;36875;49.468;11.200;2023-06-01T05:21:27;98111.69;;;21.11;36.74
50057;BME280;36875;49.468;11.200;2023-06-01T05:23:53;98123.00;;;21.18;36.83
50057;BME280;36875;49.468;11.200;2023-06-01T05:26:18;98119.94;;;21.20;36.80
50057;BME280;36875;49.468;11.200;2023-06-01T05:28:45;98117.06;;;21.25;37.06
50057;BME280;36875;49.468;11.200;2023-06-01T05:31:12;98119.97;;;21.28;36.88
50057;BME280;36875;49.468;11.200;2023-06-01T05:33:37;98113.25;;;21.34;36.95
50057;BME280;36875;49.468;11.200;2023-06-01T05:36:03;98113.34;;;21.52;37.06
50057;BME280;36875;49.468;11.200;2023-06-01T05:38:29;98115.31;;;21.60;37.12
50057;BME280;36875;49.468;11.200;2023-06-01T05:40:54;98114.78;;;21.49;37.43
50057;BME280;36875;49.468;11.200;2023-06-01T05:43:20;98121.16;;;21.36;37.85
50057;BME280;36875;49.468;11.200;2023-06-01T05:45:47;98115.44;;;21.24;38.02
50057;BME280;36875;49.468;11.200;2023-06-01T05:48:13;98104.44;;;21.15;38.92
50057;BME280;36875;49.468;11.200;2023-06-01T05:50:40;98107.28;;;21.32;38.29
50057;BME280;36875;49.468;11.200;2023-06-01T05:53:06;98103.44;;;21.42;38.11
50057;BME280;36875;49.468;11.200;2023-06-01T05:55:32;98111.25;;;21.49;38.34
50057;BME280;36875;49.468;11.200;2023-06-01T05:57:57;98116.56;;;21.54;38.36
50057;BME280;36875;49.468;11.200;2023-06-01T06:00:23;98109.34;;;21.58;38.35
50057;BME280;36875;49.468;11.200;2023-06-01T06:02:51;98117.41;;;21.63;38.15
50057;BME280;36875;49.468;11.200;2023-06-01T06:05:16;98110.50;;;21.66;38.33
50057;BME280;36875;49.468;11.200;2023-06-01T06:07:42;98107.13;;;21.69;38.48
50057;BME280;36875;49.468;11.200;2023-06-01T06:10:08;98113.41;;;21.69;38.60
50057;BME280;36875;49.468;11.200;2023-06-01T06:12:34;98112.75;;;21.72;38.51
50057;BME280;36875;49.468;11.200;2023-06-01T06:15:00;98111.03;;;21.77;38.43
50057;BME280;36875;49.468;11.200;2023-06-01T06:17:25;98113.75;;;21.77;38.46
50057;BME280;36875;49.468;11.200;2023-06-01T06:19:52;98112.31;;;21.79;38.37
50057;BME280;36875;49.468;11.200;2023-06-01T06:22:17;98107.97;;;21.78;38.55
50057;BME280;36875;49.468;11.200;2023-06-01T06:24:44;98116.00;;;21.74;38.43
50057;BME280;36875;49.468;11.200;2023-06-01T06:27:10;98120.97;;;21.72;38.65
50057;BME280;36875;49.468;11.200;2023-06-01T06:29:35;98114.53;;;21.68;38.71
50057;BME280;36875;49.468;11.200;2023-06-01T06:32:01;98106.78;;;21.70;38.47
50057;BME280;36875;49.468;11.200;2023-06-01T06:34:27;98114.38;;;21.73;38.57
50057;BME280;36875;49.468;11.200;2023-06-01T06:37:02;98097.94;;;21.73;38.47
50057;BME280;36875;49.468;11.200;2023-06-01T06:39:27;98100.72;;;21.82;38.29
50057;BME280;36875;49.468;11.200;2023-06-01T06:41:53;98100.25;;;21.80;38.23
50057;BME280;36875;49.468;11.200;2023-06-01T06:44:18;98111.03;;;21.85;38.41
50057;BME280;36875;49.468;11.200;2023-06-01T06:46:44;98104.44;;;21.86;38.20
50057;BME280;36875;49.468;11.200;2023-06-01T06:49:10;98108.44;;;21.89;38.20
50057;BME280;36875;49.468;11.200;2023-06-01T06:51:37;98107.16;;;21.86;38.10
50057;BME280;36875;49.468;11.200;2023-06-01T06:54:04;98108.81;;;21.87;37.84
50057;BME280;36875;49.468;11.200;2023-06-01T06:56:31;98107.16;;;21.86;38.08
50057;BME280;36875;49.468;11.200;2023-06-01T06:58:57;98112.97;;;21.85;37.83
50057;BME280;36875;49.468;11.200;2023-06-01T07:01:22;98104.13;;;21.88;38.03
50057;BME280;36875;49.468;11.200;2023-06-01T07:03:50;98107.97;;;21.87;37.60
50057;BME280;36875;49.468;11.200;2023-06-01T07:06:17;98105.22;;;21.87;37.54
50057;BME280;36875;49.468;11.200;2023-06-01T07:08:42;98109.28;;;21.89;37.48
50057;BME280;36875;49.468;11.200;2023-06-01T07:11:09;98106.22;;;21.91;37.38
50057;BME280;36875;49.468;11.200;2023-06-01T07:13:35;98086.38;;;21.85;37.37
50057;BME280;36875;49.468;11.200;2023-06-01T07:16:01;98099.59;;;21.92;37.46
50057;BME280;36875;49.468;11.200;2023-06-01T07:18:27;98100.56;;;21.96;37.52
50057;BME280;36875;49.468;11.200;2023-06-01T07:20:52;98098.97;;;21.95;37.54
50057;BME280;36875;49.468;11.200;2023-06-01T07:23:18;98097.84;;;21.96;37.83
50057;BME280;36875;49.468;11.200;2023-06-01T07:25:43;98093.97;;;21.97;37.67
50057;BME280;36875;49.468;11.200;2023-06-01T07:28:10;98090.44;;;21.97;37.77
50057;BME280;36875;49.468;11.200;2023-06-01T07:30:38;98093.00;;;22.02;37.90
50057;BME280;36875;49.468;11.200;2023-06-01T07:33:03;98090.13;;;22.07;38.12
50057;BME280;36875;49.468;11.200;2023-06-01T07:35:29;98091.44;;;22.09;37.88
50057;BME280;36875;49.468;11.200;2023-06-01T07:37:55;98089.31;;;22.06;38.00
50057;BME280;36875;49.468;11.200;2023-06-01T07:40:21;98087.69;;;22.05;37.61
50057;BME280;36875;49.468;11.200;2023-06-01T07:42:46;98091.25;;;22.06;37.56
50057;BME280;36875;49.468;11.200;2023-06-01T07:45:13;98088.53;;;22.06;37.47
50057;BME280;36875;49.468;11.200;2023-06-01T07:47:39;98078.34;;;22.06;37.55
50057;BME280;36875;49.468;11.200;2023-06-01T07:50:05;98085.13;;;22.09;37.71
50057;BME280;36875;49.468;11.200;2023-06-01T07:52:31;98078.84;;;22.08;37.92
50057;BME280;36875;49.468;11.200;2023-06-01T07:54:57;98079.31;;;22.10;38.02
50057;BME280;36875;49.468;11.200;2023-06-01T07:57:22;98077.06;;;22.12;38.08
50057;BME280;36875;49.468;11.200;2023-06-01T07:59:49;98079.31;;;22.10;38.00
50057;BME280;36875;49.468;11.200;2023-06-01T08:02:16;98077.22;;;22.07;38.24
50057;BME280;36875;49.468;11.200;2023-06-01T08:04:41;98081.44;;;22.13;38.36
50057;BME280;36875;49.468;11.200;2023-06-01T08:07:07;98068.66;;;22.09;38.47
50057;BME280;36875;49.468;11.200;2023-06-01T08:11:58;98079.81;;;22.12;38.78
50057;BME280;36875;49.468;11.200;2023-06-01T08:14:25;98071.25;;;22.14;38.62
50057;BME280;36875;49.468;11.200;2023-06-01T08:16:50;98077.41;;;22.20;38.55
50057;BME280;36875;49.468;11.200;2023-06-01T08:19:18;98076.28;;;22.21;38.49
50057;BME280;36875;49.468;11.200;2023-06-01T08:21:46;98084.38;;;22.26;38.24
50057;BME280;36875;49.468;11.200;2023-06-01T08:24:12;98069.00;;;22.25;38.37
50057;BME280;36875;49.468;11.200;2023-06-01T08:26:38;98071.47;;;22.26;38.45
50057;BME280;36875;49.468;11.200;2023-06-01T08:29:04;98076.16;;;22.26;38.33
50057;BME280;36875;49.468;11.200;2023-06-01T08:31:30;98061.91;;;22.24;38.53
50057;BME280;36875;49.468;11.200;2023-06-01T08:33:56;98072.28;;;22.27;38.67
50057;BME280;36875;49.468;11.200;2023-06-01T08:36:23;98061.09;;;22.23;38.36
50057;BME280;36875;49.468;11.200;2023-06-01T08:38:49;98065.78;;;22.23;38.52
50057;BME280;36875;49.468;11.200;2023-06-01T08:41:20;98065.19;;;22.26;38.60
50057;BME280;36875;49.468;11.200;2023-06-01T08:43:54;98063.25;;;22.26;38.57
50057;BME280;36875;49.468;11.200;2023-06-01T08:46:21;98052.56;;;22.25;38.64
50057;BME280;36875;49.468;11.200;2023-06-01T08:48:48;98056.78;;;22.31;38.52
50057;BME280;36875;49.468;11.200;2023-06-01T08:51:18;98065.66;;;22.37;38.71
50057;BME280;36875;49.468;11.200;2023-06-01T08:53:46;98059.69;;;22.35;38.66
50057;BME280;36875;49.468;11.200;2023-06-01T08:56:14;98059.19;;;22.32;38.56
50057;BME280;36875;49.468;11.200;2023-06-01T08:58:40;98060.66;;;22.30;38.47
50057;BME280;36875;49.468;11.200;2023-06-01T09:01:07;98065.47;;;22.33;38.56
50057;BME280;36875;49.468;11.200;2023-06-01T09:03:32;98058.72;;;22.30;38.44
50057;BME280;36875;49.468;11.200;2023-06-01T09:05:58;98039.38;;;22.27;38.27
50057;BME280;36875;49.468;11.200;2023-06-01T09:08:24;98052.91;;;22.32;38.08
50057;BME280;36875;49.468;11.200;2023-06-01T09:10:51;98052.28;;;22.35;37.83
50057;BME280;36875;49.468;11.200;2023-06-01T09:13:30;98045.66;;;22.36;37.66
50057;BME280;36875;49.468;11.200;2023-06-01T09:15:56;98056.00;;;22.39;37.54
50057;BME280;36875;49.468;11.200;2023-06-01T09:18:22;98043.72;;;22.37;37.25
50057;BME280;36875;49.468;11.200;2023-06-01T09:20:48;98050.66;;;22.34;37.17
50057;BME280;36875;49.468;11.200;2023-06-01T09:23:23;98045.34;;;22.38;37.39
50057;BME280;36875;49.468;11.200;2023-06-01T09:26:04;98036.63;;;22.36;37.47
50057;BME280;36875;49.468;11.200;2023-06-01T09:28:52;98034.38;;;22.38;37.21
50057;BME280;36875;49.468;11.200;2023-06-01T09:31:37;98043.41;;;22.38;37.41
50057;BME280;36875;49.468;11.200;2023-06-01T09:34:04;98037.91;;;22.38;37.32
50057;BME280;36875;49.468;11.200;2023-06-01T09:36:29;98032.44;;;22.38;37.34
50057;BME280;36875;49.468;11.200;2023-06-01T09:39:00;98034.38;;;22.38;36.97
50057;BME280;36875;49.468;11.200;2023-06-01T09:41:27;98040.34;;;22.40;37.27
50057;BME280;36875;49.468;11.200;2023-06-01T09:43:56;98031.78;;;22.41;37.11
50057;BME280;36875;49.468;11.200;2023-06-01T09:46:22;98035.00;;;22.43;36.95
50057;BME280;36875;49.468;11.200;2023-06-01T09:48:48;98034.69;;;22.45;37.02
50057;BME280;36875;49.468;11.200;2023-06-01T09:51:21;98032.75;;;22.45;36.85
50057;BME280;36875;49.468;11.200;2023-06-01T09:53:48;98033.06;;;22.44;36.75
50057;BME280;36875;49.468;11.200;2023-06-01T09:56:14;98031.16;;;22.44;36.95
50057;BME280;36875;49.468;11.200;2023-06-01T09:58:41;98031.16;;;22.44;37.05
50057;BME280;36875;49.468;11.200;2023-06-01T10:01:07;98021.28;;;22.43;36.86
50057;BME280;36875;49.468;11.200;2023-06-01T10:03:34;98027.91;;;22.42;37.07
50057;BME280;36875;49.468;11.200;2023-06-01T10:06:03;98018.72;;;22.38;36.93
50057;BME280;36875;49.468;11.200;2023-06-01T10:08:30;98009.38;;;22.39;37.16
50057;BME280;36875;49.468;11.200;2023-06-01T10:10:57;98018.06;;;22.41;37.13
50057;BME280;36875;49.468;11.200;2023-06-01T10:13:22;98010.97;;;22.40;37.15
50057;BME280;36875;49.468;11.200;2023-06-01T10:15:53;98016.94;;;22.42;37.17
50057;BME280;36875;49.468;11.200;2023-06-01T10:18:20;98011.44;;;22.42;37.28
50057;BME280;36875;49.468;11.200;2023-06-01T10:20:46;98011.44;;;22.42;37.22
50057;BME280;36875;49.468;11.200;2023-06-01T10:23:12;98010.81;;;22.45;37.31
50057;BME280;36875;49.468;11.200;2023-06-01T10:25:40;98007.59;;;22.43;37.42
50057;BME280;36875;49.468;11.200;2023-06-01T10:28:10;98007.59;;;22.43;37.42
50057;BME280;36875;49.468;11.200;2023-06-01T10:30:36;98002.09;;;22.43;37.03
50057;BME280;36875;49.468;11.200;2023-06-01T10:33:03;97995.66;;;22.39;37.42
50057;BME280;36875;49.468;11.200;2023-06-01T10:38:27;97998.88;;;22.41;37.34
50057;BME280;36875;49.468;11.200;2023-06-01T10:40:52;97995.00;;;22.42;37.51
50057;BME280;36875;49.468;11.200;2023-06-01T10:43:40;97995.00;;;22.42;37.55
50057;BME280;36875;49.468;11.200;2023-06-01T10:46:34;97993.88;;;22.43;37.56
50057;BME280;36875;49.468;11.200;2023-06-01T10:49:02;97990.66;;;22.41;37.45
50057;BME280;36875;49.468;11.200;2023-06-01T10:51:29;97987.59;;;22.43;37.58
50057;BME280;36875;49.468;11.200;2023-06-01T10:53:54;97982.44;;;22.41;37.50
50057;BME280;36875;49.468;11.200;2023-06-01T10:56:40;97984.38;;;22.41;37.63
50057;BME280;36875;49.468;11.200;2023-06-01T10:59:12;97968.41;;;22.34;37.87
50057;BME280;36875;49.468;11.200;2023-06-01T11:01:38;97983.56;;;22.40;37.91
50057;BME280;36875;49.468;11.200;2023-06-01T11:04:06;97983.38;;;22.37;37.64
50057;BME280;36875;49.468;11.200;2023-06-01T11:06:34;97989.72;;;22.37;37.79
50057;BME280;36875;49.468;11.200;2023-06-01T11:09:02;97977.91;;;22.37;37.70
50057;BME280;36875;49.468;11.200;2023-06-01T11:11:58;97980.34;;;22.38;37.86
50057;BME280;36875;49.468;11.200;2023-06-01T11:14:26;97985.19;;;22.41;37.64
50057;BME280;36875;49.468;11.200;2023-06-01T11:16:52;97978.22;;;22.44;37.66
50057;BME280;36875;49.468;11.200;2023-06-01T11:19:20;97983.72;;;22.44;37.81
50057;BME280;36875;49.468;11.200;2023-06-01T11:21:54;97976.78;;;22.46;37.45
50057;BME280;36875;49.468;11.200;2023-06-01T11:24:20;97972.91;;;22.47;37.33
50057;BME280;36875;49.468;11.200;2023-06-01T11:26:46;97963.06;;;22.46;37.35
50057;BME280;36875;49.468;11.200;2023-06-01T11:29:14;97963.88;;;22.47;37.29
50057;BME280;36875;49.468;11.200;2023-06-01T11:31:43;97956.75;;;22.46;37.18
50057;BME280;36875;49.468;11.200;2023-06-01T11:34:09;97945.78;;;22.46;37.45
50057;BME280;36875;49.468;11.200;2023-06-01T11:36:41;97945.16;;;22.49;37.30
50057;BME280;36875;49.468;11.200;2023-06-01T11:39:16;97952.25;;;22.50;37.13
50057;BME280;36875;49.468;11.200;2023-06-01T11:41:43;97945.31;;;22.52;37.22
50057;BME280;36875;49.468;11.200;2023-06-01T11:44:09;97937.88;;;22.53;37.11
50057;BME280;36875;49.468;11.200;2023-06-01T11:46:35;97930.94;;;22.56;37.16
50057;BME280;36875;49.468;11.200;2023-06-01T11:49:03;97933.69;;;22.56;37.21
50057;BME280;36875;49.468;11.200;2023-06-01T11:51:33;97927.72;;;22.54;37.17
50057;BME280;36875;49.468;11.200;2023-06-01T11:54:02;97935.97;;;22.54;37.26
50057;BME280;36875;49.468;11.200;2023-06-01T11:56:29;97935.59;;;22.55;37.57
50057;BME280;36875;49.468;11.200;2023-06-01T11:58:57;97928.53;;;22.54;37.27
50057;BME280;36875;49.468;11.200;2023-06-01T12:01:24;97928.69;;;22.58;37.73
50057;BME280;36875;49.468;11.200;2023-06-01T12:03:50;97922.03;;;22.59;37.84
50057;BME280;36875;49.468;11.200;2023-06-01T12:06:19;97922.41;;;22.57;37.67
50057;BME280;36875;49.468;11.200;2023-06-01T12:08:44;97919.97;;;22.56;37.70
50057;BME280;36875;49.468;11.200;2023-06-01T12:11:11;97919.16;;;22.55;37.38
50057;BME280;36875;49.468;11.200;2023-06-01T12:13:37;97919.00;;;22.51;37.66
50057;BME280;36875;49.468;11.200;2023-06-01T12:16:04;97915.13;;;22.52;37.57
50057;BME280;36875;49.468;11.200;2023-06-01T12:18:30;97917.72;;;22.58;37.72
50057;BME280;36875;49.468;11.200;2023-06-01T12:20:56;97912.69;;;22.60;37.87
50057;BME280;36875;49.468;11.200;2023-06-01T12:23:21;97911.56;;;22.61;38.04
50057;BME280;36875;49.468;11.200;2023-06-01T12:25:51;97895.91;;;22.61;38.08
50057;BME280;36875;49.468;11.200;2023-06-01T12:28:18;97899.44;;;22.62;38.08
50057;BME280;36875;49.468;11.200;2023-06-01T12:30:44;97903.13;;;22.66;38.40
50057;BME280;36875;49.468;11.200;2023-06-01T12:33:30;97909.44;;;22.66;38.21
50057;BME280;36875;49.468;11.200;2023-06-01T12:35:56;97902.34;;;22.65;38.08
50057;BME280;36875;49.468;11.200;2023-06-01T12:38:21;97897.97;;;22.64;38.00
50057;BME280;36875;49.468;11.200;2023-06-01T12:41:05;97892.84;;;22.63;37.95
50057;BME280;36875;49.468;11.200;2023-06-01T12:43:34;97892.38;;;22.61;37.95
50057;BME280;36875;49.468;11.200;2023-06-01T12:46:00;97889.63;;;22.61;38.03
50057;BME280;36875;49.468;11.200;2023-06-01T12:48:30;97886.88;;;22.61;37.96
50057;BME280;36875;49.468;11.200;2023-06-01T12:50:59;97888.00;;;22.60;37.93
50057;BME280;36875;49.468;11.200;2023-06-01T12:53:26;97882.06;;;22.58;37.84
50057;BME280;36875;49.468;11.200;2023-06-01T12:55:51;97883.31;;;22.60;37.80